Time;durP1;ratioP1;P1;durP2;ratioP2;P2;SDS_P1;SDS_P2;PMS_P1;PMS_P2;Temp;Humidity;BMP_temperature;BMP_pressure;BME280_temperature;BME280_humidity;BME280_pressure;Samples;Min_cycle;Max_cycle;Signal;HPM_P1;HPM_P2
2022/08/09 00:03:44;;;;;;;5.65;2.25;;;;;;;16.84;71.80;101940.38;10574319;28;20046;-76
2022/08/09 00:08:49;;;;;;;6.32;2.25;;;;;;;16.94;71.33;101941.41;10606021;28;20584;-76
2022/08/09 00:13:51;;;;;;;7.15;2.72;;;;;;;16.91;71.67;101950.31;10601415;28;20070;-76
2022/08/09 00:18:54;;;;;;;8.23;2.72;;;;;;;16.82;71.88;101947.31;10605472;28;20524;-76
2022/08/09 00:23:57;;;;;;;7.68;3.30;;;;;;;16.93;71.70;101948.06;10599725;28;20432;-76
2022/08/09 00:29:00;;;;;;;7.60;2.92;;;;;;;17.03;71.69;101948.78;10591787;28;20034;-76
2022/08/09 00:34:03;;;;;;;7.53;4.10;;;;;;;17.12;70.92;101954.53;10606849;28;20052;-76
2022/08/09 00:39:05;;;;;;;8.63;3.75;;;;;;;17.10;71.13;101959.53;10598366;28;20032;-76
2022/08/09 00:44:07;;;;;;;6.85;3.45;;;;;;;17.09;71.14;101955.94;10605445;28;20502;-76
2022/08/09 00:49:09;;;;;;;10.52;2.97;;;;;;;17.02;71.39;101955.47;10577605;28;20497;-76
2022/08/09 00:54:12;;;;;;;11.25;4.55;;;;;;;17.07;71.07;101966.50;10586761;28;20082;-76
2022/08/09 00:59:14;;;;;;;7.47;3.13;;;;;;;16.96;71.56;101964.94;10580167;28;20043;-76
2022/08/09 01:04:36;;;;;;;8.23;3.42;;;;;;;16.66;72.40;101968.78;10612995;28;20064;-77
2022/08/09 01:09:48;;;;;;;9.38;4.18;;;;;;;16.31;73.30;101978.16;10583034;28;20047;-76
2022/08/09 01:15:12;;;;;;;10.60;3.58;;;;;;;16.37;73.90;101973.44;10586252;28;20059;-76
2022/08/09 01:20:33;;;;;;;7.47;3.28;;;;;;;16.50;73.53;101975.56;10557897;28;20070;-76
2022/08/09 01:25:59;;;;;;;5.18;3.35;;;;;;;16.52;73.95;101976.94;10602773;28;20055;-77
2022/08/09 01:31:03;;;;;;;8.52;3.65;;;;;;;16.32;73.99;101977.09;10566157;28;20047;-76
2022/08/09 01:36:08;;;;;;;9.32;3.75;;;;;;;16.11;74.71;101981.06;10573027;28;20039;-76
2022/08/09 01:41:21;;;;;;;11.23;3.25;;;;;;;16.13;74.94;101984.38;10594079;28;20039;-76
2022/08/09 01:46:29;;;;;;;7.60;3.80;;;;;;;15.97;74.77;101983.66;10601136;28;20042;-77
2022/08/09 01:51:33;;;;;;;8.30;3.40;;;;;;;16.00;75.28;101979.47;10581577;28;20043;-77
2022/08/09 01:56:38;;;;;;;11.07;4.28;;;;;;;16.20;74.54;101988.50;10571552;28;20042;-77
2022/08/09 02:01:42;;;;;;;11.77;3.80;;;;;;;16.18;74.97;101999.03;10602604;28;20040;-77
2022/08/09 02:12:06;;;;;;;6.78;3.75;;;;;;;16.05;74.94;102001.59;10582065;28;20054;-76
2022/08/09 02:17:10;;;;;;;5.28;3.45;;;;;;;16.18;74.83;101995.44;10595860;28;20047;-76
2022/08/09 02:22:39;;;;;;;8.20;3.10;;;;;;;16.41;74.43;102002.22;10587475;28;20054;-76
2022/08/09 02:27:46;;;;;;;9.02;3.30;;;;;;;16.66;73.80;101999.28;10548770;28;20044;-77
2022/08/09 02:32:49;;;;;;;9.18;3.30;;;;;;;16.91;73.31;101995.50;10592997;28;20050;-76
2022/08/09 02:37:55;;;;;;;7.18;3.35;;;;;;;17.18;72.17;101987.47;10561608;28;20035;-76
2022/08/09 02:43:00;;;;;;;5.75;3.50;;;;;;;17.31;71.08;101988.72;10578143;28;20042;-76
2022/08/09 02:48:07;;;;;;;6.95;3.20;;;;;;;17.31;71.03;101998.97;10568537;28;20048;-76
2022/08/09 02:53:13;;;;;;;6.90;4.00;;;;;;;17.24;70.73;101998.50;10568358;28;20082;-76
2022/08/09 02:58:16;;;;;;;9.82;3.47;;;;;;;17.20;70.94;102014.09;10583837;28;20047;-77
2022/08/09 03:03:20;;;;;;;13.95;4.00;;;;;;;17.18;71.18;102006.91;10583184;28;20044;-77
2022/08/09 03:08:24;;;;;;;7.63;3.63;;;;;;;17.35;70.86;102002.81;10554065;28;20035;-76
2022/08/09 03:13:26;;;;;;;10.50;3.47;;;;;;;17.45;69.97;102006.31;10587968;28;20047;-76
2022/08/09 03:18:29;;;;;;;9.68;3.38;;;;;;;17.76;69.58;102011.56;10606357;28;20040;-76
2022/08/09 03:23:32;;;;;;;5.05;3.60;;;;;;;17.98;68.69;102005.44;10583812;28;20058;-76
2022/08/09 03:28:35;;;;;;;6.53;3.47;;;;;;;18.35;67.63;102007.44;10606664;28;20035;-76
2022/08/09 03:33:38;;;;;;;6.78;2.80;;;;;;;18.71;65.86;102012.47;10607862;28;20674;-76
2022/08/09 03:38:42;;;;;;;9.70;3.30;;;;;;;19.00;64.65;102007.53;10569601;28;20051;-77
2022/08/09 03:43:45;;;;;;;5.63;2.88;;;;;;;19.04;64.25;102014.13;10589446;28;20040;-76
2022/08/09 03:48:52;;;;;;;5.22;3.05;;;;;;;18.81;64.63;102010.38;10612525;28;20457;-77
2022/08/09 03:53:54;;;;;;;4.32;2.97;;;;;;;18.91;64.23;102020.47;10586163;28;20551;-76
2022/08/09 03:58:56;;;;;;;5.40;3.10;;;;;;;19.03;63.82;102022.78;10557504;28;20036;-76
2022/08/09 04:03:59;;;;;;;7.05;3.00;;;;;;;19.43;62.62;102027.59;10584525;28;20054;-77
2022/08/09 04:09:05;;;;;;;4.40;3.03;;;;;;;20.03;61.16;102029.53;10551297;28;20050;-77
2022/08/09 04:14:07;;;;;;;5.70;3.30;;;;;;;20.27;60.22;102024.53;10598710;28;20062;-77
2022/08/09 04:19:10;;;;;;;6.53;3.20;;;;;;;20.57;58.80;102028.59;10545099;28;20027;-76
2022/08/09 04:24:12;;;;;;;6.85;2.92;;;;;;;20.54;59.06;102036.78;10579239;28;20490;-77
2022/08/09 04:29:14;;;;;;;10.40;2.75;;;;;;;20.97;58.16;102032.34;10610827;28;20425;-77
2022/08/09 04:34:17;;;;;;;9.52;2.95;;;;;;;21.32;56.93;102030.63;10610796;28;20595;-77
2022/08/09 04:39:19;;;;;;;4.63;2.40;;;;;;;21.72;56.04;102047.44;10620124;28;20044;-78
2022/08/09 04:44:21;;;;;;;3.85;1.85;;;;;;;21.21;55.66;102040.41;10588073;28;20051;-76
2022/08/09 04:49:24;;;;;;;5.47;1.75;;;;;;;20.68;56.65;102041.19;10576389;28;20039;-77
2022/08/09 04:54:26;;;;;;;2.85;1.30;;;;;;;20.41;57.53;102030.94;10619167;28;20047;-77
2022/08/09 04:59:28;;;;;;;5.07;2.08;;;;;;;21.05;56.14;102025.19;10590434;28;20031;-77
2022/08/09 05:04:30;;;;;;;2.25;1.30;;;;;;;21.46;55.32;102026.94;10606388;28;20035;-77
2022/08/09 05:09:33;;;;;;;5.35;1.75;;;;;;;21.91;54.30;102027.63;10595419;28;20032;-77
2022/08/09 05:14:37;;;;;;;6.03;1.80;;;;;;;21.98;53.63;102033.53;10579197;28;20536;-77
2022/08/09 05:19:40;;;;;;;2.75;1.40;;;;;;;22.02;54.25;102030.91;10611788;28;20047;-77
2022/08/09 05:24:42;;;;;;;2.50;1.55;;;;;;;22.26;53.32;102028.53;10594818;28;20047;-77
2022/08/09 05:29:44;;;;;;;4.03;1.42;;;;;;;22.75;51.35;102032.03;10603995;28;20382;-76
2022/08/09 05:34:47;;;;;;;2.15;1.40;;;;;;;22.60;51.96;102038.13;10581600;28;20046;-77
2022/08/09 05:39:49;;;;;;;2.53;1.35;;;;;;;23.28;49.61;102042.03;10586166;28;20040;-77
2022/08/09 05:44:53;;;;;;;3.15;1.33;;;;;;;23.30;49.83;102034.13;10597604;28;20043;-79
2022/08/09 05:49:55;;;;;;;1.85;1.42;;;;;;;23.28;50.12;102039.22;10591226;28;20043;-78
2022/08/09 05:54:58;;;;;;;2.03;0.90;;;;;;;24.10;47.54;102040.69;10613529;28;20507;-77
2022/08/09 06:00:00;;;;;;;1.25;0.70;;;;;;;24.21;45.61;102035.53;10586725;28;20060;-76
2022/08/09 06:05:02;;;;;;;1.67;0.80;;;;;;;24.26;45.72;102044.56;10609115;28;20047;-78
2022/08/09 06:10:05;;;;;;;3.47;0.90;;;;;;;24.60;45.11;102043.50;10597666;28;20501;-77
2022/08/09 06:15:07;;;;;;;1.85;0.85;;;;;;;25.04;44.10;102035.56;10594374;28;20424;-77
2022/08/09 06:20:10;;;;;;;1.98;1.00;;;;;;;25.88;42.50;102030.47;10614162;28;20032;-78
2022/08/09 06:25:12;;;;;;;1.10;1.00;;;;;;;26.13;41.72;102037.69;10578730;28;20040;-78
2022/08/09 06:30:15;;;;;;;0.80;0.73;;;;;;;26.01;42.87;102039.69;10555650;28;20498;-78
2022/08/09 06:35:18;;;;;;;2.53;0.80;;;;;;;26.27;42.05;102047.78;10573502;28;20410;-77
2022/08/09 06:40:20;;;;;;;1.20;1.10;;;;;;;26.47;41.68;102055.28;10555379;28;20039;-78
2022/08/09 06:45:22;;;;;;;1.73;0.90;;;;;;;26.46;41.46;102047.19;10575052;28;20060;-77
2022/08/09 06:50:25;;;;;;;1.95;0.80;;;;;;;26.59;39.94;102051.63;10580577;28;20051;-77
2022/08/09 06:55:30;;;;;;;3.38;1.17;;;;;;;26.68;40.59;102047.47;10614383;28;20056;-78
2022/08/09 07:00:34;;;;;;;3.38;0.90;;;;;;;27.06;39.29;102040.53;10595929;28;20043;-77
2022/08/09 07:05:36;;;;;;;3.10;1.52;;;;;;;27.34;39.29;102046.13;10596900;28;20051;-77
2022/08/09 07:10:38;;;;;;;3.25;1.23;;;;;;;27.78;38.69;102048.94;10572710;28;20410;-77
2022/08/09 07:15:40;;;;;;;5.78;1.00;;;;;;;28.07;37.80;102048.41;10537094;28;20052;-78
2022/08/09 07:20:42;;;;;;;3.47;1.52;;;;;;;28.29;37.37;102049.78;10586858;28;20044;-78
2022/08/09 07:25:44;;;;;;;1.00;0.90;;;;;;;27.45;37.04;102047.25;10594749;28;20035;-77
2022/08/09 07:30:47;;;;;;;6.30;1.15;;;;;;;27.08;38.04;102048.66;10594732;28;20516;-77
2022/08/09 07:35:50;;;;;;;3.53;1.15;;;;;;;26.88;38.22;102050.44;10613252;28;20410;-77
2022/08/09 07:40:53;;;;;;;2.80;0.98;;;;;;;27.53;37.97;102054.69;10607966;28;20526;-77
2022/08/09 07:45:55;;;;;;;6.18;1.67;;;;;;;27.48;38.03;102049.34;10535819;28;20043;-77
2022/08/09 07:50:58;;;;;;;3.65;1.10;;;;;;;27.67;37.36;102057.09;10570540;28;20047;-77
2022/08/09 07:56:00;;;;;;;3.33;1.00;;;;;;;28.06;36.84;102060.06;10578349;28;20512;-77
2022/08/09 08:01:03;;;;;;;3.53;1.10;;;;;;;27.83;37.31;102063.56;10611635;28;20417;-77
2022/08/09 08:06:05;;;;;;;3.60;1.23;;;;;;;27.16;37.78;102056.91;10612396;28;20051;-78
2022/08/09 08:11:08;;;;;;;3.33;1.10;;;;;;;26.88;38.46;102067.34;10611766;28;20436;-78
2022/08/09 08:16:10;;;;;;;1.35;1.00;;;;;;;26.76;37.65;102070.22;10611738;28;20051;-77
2022/08/09 08:21:12;;;;;;;1.98;0.90;;;;;;;26.21;37.91;102069.72;10593904;28;20047;-78
2022/08/09 08:26:14;;;;;;;3.83;1.10;;;;;;;26.57;38.29;102074.50;10577629;28;20040;-77
2022/08/09 08:31:17;;;;;;;4.43;1.52;;;;;;;26.71;37.94;102068.44;10604004;28;20055;-77
2022/08/09 08:36:19;;;;;;;4.03;1.20;;;;;;;26.57;38.62;102073.69;10612020;28;20062;-77
2022/08/09 08:41:23;;;;;;;3.38;1.02;;;;;;;25.80;38.75;102076.38;10611466;28;20042;-77
2022/08/09 08:46:38;;;;;;;3.88;1.17;;;;;;;25.11;39.87;102079.94;10586309;28;20044;-77
2022/08/09 08:51:41;;;;;;;5.03;1.08;;;;;;;24.77;41.05;102079.03;10569674;28;20036;-78
2022/08/09 08:56:44;;;;;;;2.08;0.93;;;;;;;24.10;40.61;102085.56;10534335;28;20075;-77
2022/08/09 09:01:48;;;;;;;2.67;0.80;;;;;;;23.68;40.73;102081.81;10546804;28;20044;-77
2022/08/09 09:06:53;;;;;;;2.10;0.88;;;;;;;23.31;42.25;102080.56;10599741;28;20043;-77
2022/08/09 09:11:57;;;;;;;1.48;0.95;;;;;;;23.14;42.48;102079.44;10556091;28;20051;-77
2022/08/09 09:17:00;;;;;;;2.17;1.05;;;;;;;22.97;42.80;102073.03;10544480;28;20098;-77
2022/08/09 09:22:08;;;;;;;0.82;0.80;;;;;;;23.22;41.91;102074.97;10617204;28;20046;-77
2022/08/09 09:27:20;;;;;;;1.23;0.50;;;;;;;23.71;40.67;102078.34;10581163;28;20044;-77
2022/08/09 09:32:26;;;;;;;1.60;0.80;;;;;;;24.26;39.74;102077.41;10606413;28;20059;-76
2022/08/09 09:37:29;;;;;;;1.33;0.63;;;;;;;24.08;39.38;102070.25;10599133;28;20039;-75
2022/08/09 09:42:32;;;;;;;1.92;0.80;;;;;;;23.75;39.79;102074.53;10598562;28;20058;-76
2022/08/09 09:47:35;;;;;;;1.02;0.60;;;;;;;23.28;39.86;102065.25;10599513;28;20058;-76
2022/08/09 09:52:50;;;;;;;0.60;0.60;;;;;;;23.00;41.18;102067.59;10602026;28;20043;-75
2022/08/09 09:58:00;;;;;;;1.38;0.90;;;;;;;22.96;41.20;102069.41;10617809;28;20047;-75
2022/08/09 10:03:02;;;;;;;0.95;0.55;;;;;;;22.96;41.95;102063.81;10584569;28;20513;-75
2022/08/09 10:08:05;;;;;;;0.80;0.60;;;;;;;23.05;42.75;102070.22;10559516;28;20042;-75
2022/08/09 10:13:07;;;;;;;2.55;0.85;;;;;;;22.74;45.67;102069.56;10598115;28;20044;-75
2022/08/09 10:18:11;;;;;;;1.48;0.80;;;;;;;22.15;47.18;102075.56;10596051;28;20516;-75
2022/08/09 10:23:19;;;;;;;2.13;0.70;;;;;;;21.86;48.11;102078.03;10585880;28;20047;-75
2022/08/09 10:28:21;;;;;;;2.42;0.70;;;;;;;21.68;48.16;102075.19;10595878;28;20521;-75
2022/08/09 10:33:23;;;;;;;2.20;0.60;;;;;;;21.61;48.55;102079.59;10585519;28;20043;-76
2022/08/09 10:38:26;;;;;;;0.68;0.60;;;;;;;21.67;48.23;102072.72;10593530;28;20044;-75
2022/08/09 10:43:28;;;;;;;1.40;0.80;;;;;;;21.86;48.41;102072.47;10592142;28;20059;-74
2022/08/09 10:48:37;;;;;;;1.58;0.77;;;;;;;22.01;46.78;102072.03;10591991;28;20051;-76
2022/08/09 10:54:09;;;;;;;1.45;0.98;;;;;;;22.03;47.03;102074.50;10614686;28;20057;-76
2022/08/09 10:59:21;;;;;;;3.75;0.80;;;;;;;22.07;46.74;102061.56;10587776;28;20040;-75
2022/08/09 11:04:29;;;;;;;1.33;0.90;;;;;;;22.24;46.70;102056.03;10612134;28;20040;-76
2022/08/09 11:09:37;;;;;;;1.02;0.85;;;;;;;22.12;47.20;102069.78;10612673;28;20058;-75
2022/08/09 11:14:47;;;;;;;1.33;0.50;;;;;;;21.65;48.09;102070.25;10575998;28;20059;-75
2022/08/09 11:19:57;;;;;;;0.70;0.60;;;;;;;21.36;47.22;102070.75;10594668;28;20040;-75
2022/08/09 11:25:06;;;;;;;0.82;0.63;;;;;;;21.14;47.70;102075.50;10595291;28;20051;-75
2022/08/09 11:30:34;;;;;;;1.27;0.88;;;;;;;20.90;48.56;102071.06;10612462;27;20050;-75
2022/08/09 11:35:38;;;;;;;3.92;0.90;;;;;;;20.74;48.74;102065.00;10592494;28;20051;-75
2022/08/09 11:40:40;;;;;;;0.95;0.90;;;;;;;20.71;49.32;102062.88;10595412;28;20063;-76
2022/08/09 11:45:59;;;;;;;0.73;0.73;;;;;;;20.68;48.97;102060.72;10578329;28;20046;-76
2022/08/09 11:51:03;;;;;;;3.83;0.88;;;;;;;20.52;49.18;102064.16;10602598;28;20412;-77
2022/08/09 11:56:14;;;;;;;0.82;0.60;;;;;;;20.58;49.46;102054.53;10611710;28;20055;-77
2022/08/09 12:01:38;;;;;;;3.22;0.80;;;;;;;20.57;48.78;102067.66;10595095;28;20040;-77
2022/08/09 12:06:52;;;;;;;3.63;1.35;;;;;;;20.46;49.40;102058.69;10593371;28;20306;-76
2022/08/09 12:12:04;;;;;;;2.88;0.85;;;;;;;20.59;48.97;102050.59;10581088;28;20043;-77
2022/08/09 12:17:12;;;;;;;0.63;0.63;;;;;;;20.72;48.48;102055.31;10573916;28;20045;-78
2022/08/09 12:22:16;;;;;;;1.13;0.75;;;;;;;20.83;48.84;102053.13;10575980;28;20068;-77
2022/08/09 12:27:20;;;;;;;1.20;0.82;;;;;;;20.85;48.95;102056.41;10568906;28;20028;-78
2022/08/09 12:32:26;;;;;;;1.48;0.60;;;;;;;20.93;48.30;102058.44;10592876;28;20051;-78
2022/08/09 12:37:36;;;;;;;0.88;0.70;;;;;;;20.99;48.35;102051.56;10595945;28;20043;-77
2022/08/09 12:42:43;;;;;;;0.98;0.70;;;;;;;21.04;48.05;102057.03;10610351;28;20035;-77
2022/08/09 12:47:46;;;;;;;0.63;0.60;;;;;;;21.14;48.21;102053.97;10595298;28;20044;-79
2022/08/09 12:52:48;;;;;;;1.45;0.50;;;;;;;21.20;48.53;102058.31;10610949;28;20048;-77
2022/08/09 12:57:51;;;;;;;1.27;0.60;;;;;;;21.21;48.18;102054.38;10607031;28;20417;-78
2022/08/09 13:03:03;;;;;;;0.88;0.60;;;;;;;21.17;47.80;102058.09;10590179;28;20031;-80
2022/08/09 13:08:17;;;;;;;0.65;0.65;;;;;;;21.13;48.51;102068.25;10599453;28;20050;-79
2022/08/09 13:13:41;;;;;;;1.00;0.90;;;;;;;20.93;51.38;102069.59;10605402;28;20422;-78
2022/08/09 13:18:48;;;;;;;1.20;0.98;;;;;;;20.62;52.59;102061.13;10561278;28;20038;-79
2022/08/09 13:23:58;;;;;;;1.13;1.02;;;;;;;20.44;53.02;102074.91;10593286;28;20043;-79
2022/08/09 13:29:10;;;;;;;0.82;0.75;;;;;;;20.26;54.42;102061.06;10602671;28;20040;-77
2022/08/09 13:34:12;;;;;;;1.35;0.80;;;;;;;20.09;56.30;102061.72;10581773;28;20048;-79
2022/08/09 13:39:15;;;;;;;1.42;0.73;;;;;;;19.96;58.49;102059.75;10614489;28;20056;-79
2022/08/09 13:44:17;;;;;;;0.82;0.80;;;;;;;19.87;58.80;102062.44;10592064;28;20036;-79
2022/08/09 13:49:19;;;;;;;4.93;1.10;;;;;;;19.91;57.96;102059.88;10561757;28;20047;-79
2022/08/09 13:54:21;;;;;;;1.73;1.20;;;;;;;19.96;57.10;102054.19;10584023;28;20077;-78
2022/08/09 13:59:33;;;;;;;1.25;1.00;;;;;;;20.06;56.73;102054.81;10595956;28;20035;-79
2022/08/09 14:04:36;;;;;;;1.25;0.90;;;;;;;20.06;55.37;102056.75;10584421;28;20040;-79
2022/08/09 14:09:45;;;;;;;1.63;0.68;;;;;;;20.14;55.38;102056.06;10588571;28;20048;-78
2022/08/09 14:14:48;;;;;;;0.82;0.70;;;;;;;20.12;54.23;102056.34;10595608;28;20051;-78
2022/08/09 14:19:51;;;;;;;1.95;1.25;;;;;;;20.13;53.83;102049.66;10576516;28;20041;-79
2022/08/09 14:24:53;;;;;;;1.20;0.60;;;;;;;20.26;53.50;102056.31;10602677;28;20036;-78
2022/08/09 14:29:55;;;;;;;0.50;0.50;;;;;;;20.31;52.57;102049.84;10597571;28;20040;-79
2022/08/09 14:34:57;;;;;;;0.70;0.70;;;;;;;20.34;52.63;102058.38;10588183;28;20516;-79
2022/08/09 14:40:00;;;;;;;2.15;0.70;;;;;;;20.27;51.56;102034.84;10600438;28;20036;-77
2022/08/09 14:45:04;;;;;;;0.95;0.60;;;;;;;20.28;52.19;102053.22;10603216;28;20054;-79
2022/08/09 14:50:07;;;;;;;0.60;0.60;;;;;;;20.34;50.37;102055.59;10570064;28;20042;-79
2022/08/09 14:55:10;;;;;;;0.90;0.35;;;;;;;20.35;49.82;102048.06;10589958;28;20069;-80
2022/08/09 15:00:13;;;;;;;1.48;0.40;;;;;;;20.29;49.19;102046.50;10599700;28;20039;-79
2022/08/09 15:05:15;;;;;;;1.33;0.60;;;;;;;20.24;49.43;102047.44;10598189;28;20047;-79
2022/08/09 15:10:17;;;;;;;0.85;0.63;;;;;;;20.25;48.75;102032.38;10584906;28;20050;-79
2022/08/09 15:15:21;;;;;;;2.80;0.60;;;;;;;20.27;48.38;102034.84;10604696;28;20064;-79
2022/08/09 15:20:23;;;;;;;2.28;0.65;;;;;;;20.23;48.80;102034.66;10609720;28;20052;-79
2022/08/09 15:25:26;;;;;;;0.93;0.68;;;;;;;20.27;48.81;102046.81;10583469;28;20525;-79
2022/08/09 15:30:29;;;;;;;1.15;0.77;;;;;;;20.22;48.22;102046.13;10578455;28;20054;-79
2022/08/09 15:35:31;;;;;;;2.40;0.70;;;;;;;20.21;49.02;102047.25;10568808;28;20047;-79
2022/08/09 15:40:33;;;;;;;1.75;0.60;;;;;;;20.17;49.25;102042.31;10613877;28;20408;-79
2022/08/09 15:45:35;;;;;;;2.00;0.73;;;;;;;20.15;50.01;102049.34;10575298;28;20031;-79
2022/08/09 15:50:37;;;;;;;0.95;0.52;;;;;;;20.10;50.32;102052.22;10593142;28;20044;-79
2022/08/09 15:55:39;;;;;;;1.65;0.65;;;;;;;20.05;50.82;102038.41;10611149;28;20059;-79
2022/08/09 16:00:44;;;;;;;0.82;0.60;;;;;;;20.07;50.64;102045.31;10576876;28;20038;-79
2022/08/09 16:05:46;;;;;;;1.55;0.80;;;;;;;20.06;50.22;102045.63;10593410;28;20036;-79
2022/08/09 16:10:48;;;;;;;0.75;0.73;;;;;;;20.01;50.24;102049.34;10587562;28;20040;-79
2022/08/09 16:15:51;;;;;;;0.70;0.70;;;;;;;19.94;49.66;102043.34;10602753;28;20055;-79
2022/08/09 16:20:53;;;;;;;0.90;0.70;;;;;;;19.95;49.81;102047.78;10610700;28;20040;-79
2022/08/09 16:25:59;;;;;;;0.47;0.47;;;;;;;19.90;49.60;102042.31;10610250;28;20039;-79
2022/08/09 16:31:08;;;;;;;1.52;0.90;;;;;;;19.87;49.59;102048.53;10592994;28;20062;-79
2022/08/09 16:36:11;;;;;;;0.80;0.70;;;;;;;19.86;49.93;102058.84;10611006;28;20039;-79
2022/08/09 16:41:13;;;;;;;0.68;0.68;;;;;;;19.86;51.02;102049.66;10589087;28;20051;-79
2022/08/09 16:46:18;;;;;;;0.55;0.52;;;;;;;19.86;50.63;102055.22;10609800;28;20035;-79
2022/08/09 16:51:20;;;;;;;1.88;0.57;;;;;;;19.85;50.71;102057.19;10593071;28;20073;-79
2022/08/09 16:56:22;;;;;;;1.40;0.80;;;;;;;19.85;51.18;102068.34;10609076;28;20062;-79
2022/08/09 17:01:25;;;;;;;0.65;0.65;;;;;;;19.94;51.56;102065.63;10576797;28;20050;-79
2022/08/09 17:06:27;;;;;;;1.83;1.17;;;;;;;20.07;51.00;102064.81;10552316;28;20038;-79
2022/08/09 17:11:29;;;;;;;1.48;0.80;;;;;;;20.03;50.75;102062.97;10593160;28;20051;-80
2022/08/09 17:16:31;;;;;;;0.80;0.73;;;;;;;20.03;49.82;102066.56;10581459;28;20043;-79
2022/08/09 17:21:33;;;;;;;1.45;0.80;;;;;;;20.07;50.26;102064.81;10590046;28;20394;-80
2022/08/09 17:26:36;;;;;;;1.65;0.80;;;;;;;19.97;50.25;102056.69;10586072;28;20043;-79
2022/08/09 17:31:38;;;;;;;2.72;0.95;;;;;;;19.90;50.24;102063.78;10561425;28;20525;-80
2022/08/09 17:36:40;;;;;;;0.98;0.80;;;;;;;19.95;49.98;102063.69;10550155;28;20056;-80
2022/08/09 17:41:42;;;;;;;0.95;0.80;;;;;;;19.95;49.66;102067.28;10600237;28;20046;-79
2022/08/09 17:46:44;;;;;;;1.77;1.35;;;;;;;19.86;49.89;102071.94;10589173;28;20505;-82
2022/08/09 17:51:48;;;;;;;1.45;0.90;;;;;;;19.83;49.70;102078.97;10596474;28;20043;-81
2022/08/09 17:56:50;;;;;;;3.00;0.90;;;;;;;19.90;49.61;102075.75;10584397;28;20056;-79
2022/08/09 18:01:52;;;;;;;1.98;0.95;;;;;;;19.97;49.88;102078.16;10602828;28;20505;-79
2022/08/09 18:06:54;;;;;;;4.45;2.22;;;;;;;20.00;50.40;102070.00;10612468;28;20040;-79
2022/08/09 18:11:56;;;;;;;3.28;2.60;;;;;;;;;;10578416;28;20043;-77
2022/08/09 18:16:58;;;;;;;1.90;1.50;;;;;;;20.01;51.34;102068.84;10609074;28;20058;-78
2022/08/09 18:22:01;;;;;;;2.92;2.00;;;;;;;19.99;51.96;102067.50;10588389;28;20489;-80
2022/08/09 18:27:05;;;;;;;5.05;2.38;;;;;;;20.04;51.58;102076.59;10559778;28;20039;-78
2022/08/09 18:32:09;;;;;;;4.40;2.45;;;;;;;20.02;52.55;102076.06;10581848;28;20042;-80
2022/08/09 18:37:11;;;;;;;4.68;2.20;;;;;;;20.08;52.15;102083.19;10565455;28;20047;-79
2022/08/09 18:42:14;;;;;;;2.95;2.15;;;;;;;20.14;53.02;102073.59;10612805;28;20046;-78
2022/08/09 18:47:17;;;;;;;6.70;3.10;;;;;;;20.13;53.32;102068.31;10605907;28;20441;-79
2022/08/09 18:52:23;;;;;;;6.60;3.42;;;;;;;20.17;53.76;102069.34;10584910;28;20051;-78
2022/08/09 18:57:25;;;;;;;7.72;3.85;;;;;;;20.13;54.08;102077.53;10591410;28;20051;-78
2022/08/09 19:02:27;;;;;;;4.90;2.90;;;;;;;20.11;53.88;102076.16;10588317;28;20516;-79
2022/08/09 19:07:29;;;;;;;9.40;2.97;;;;;;;20.02;53.98;102075.25;10572977;28;20032;-80
2022/08/09 19:12:32;;;;;;;3.22;2.35;;;;;;;19.98;53.83;102080.63;10562518;28;20043;-81
2022/08/09 19:17:38;;;;;;;7.35;2.65;;;;;;;20.03;54.06;102069.38;10583844;28;20047;-81
2022/08/09 19:22:40;;;;;;;8.23;3.35;;;;;;;19.97;54.82;102070.63;10584291;28;20039;-78
2022/08/09 19:27:42;;;;;;;6.97;3.85;;;;;;;19.90;56.29;102069.34;10588361;28;20040;-79
2022/08/09 19:32:48;;;;;;;8.63;3.13;;;;;;;19.86;55.73;102069.16;10591658;28;20058;-80
2022/08/09 19:37:53;;;;;;;6.80;3.10;;;;;;;19.92;56.60;102072.66;10582672;28;20051;-81
2022/08/09 19:42:55;;;;;;;5.95;3.63;;;;;;;19.81;57.13;102067.31;10602377;28;20043;-84
2022/08/09 19:47:58;;;;;;;3.92;2.92;;;;;;;19.83;56.58;102067.00;10589337;28;20040;-79
2022/08/09 19:53:00;;;;;;;10.68;3.45;;;;;;;19.84;57.23;102063.06;10590041;28;20032;-81
2022/08/09 19:58:06;;;;;;;7.95;3.65;;;;;;;19.63;58.48;102059.03;10577224;28;20433;-81
2022/08/09 20:03:11;;;;;;;10.60;4.63;;;;;;;19.46;58.62;102060.44;10594163;28;20035;-80
2022/08/09 20:08:13;;;;;;;10.65;4.43;;;;;;;19.51;58.11;102057.53;10602983;28;20409;-80
2022/08/09 20:13:19;;;;;;;11.32;4.57;;;;;;;19.40;58.79;102061.63;10606117;28;20054;-79
2022/08/09 20:18:22;;;;;;;7.90;4.45;;;;;;;19.16;60.74;102058.19;10596237;28;20032;-79
2022/08/09 20:23:27;;;;;;;8.45;4.15;;;;;;;19.22;60.61;102066.13;10574191;28;20040;-79
2022/08/09 20:28:29;;;;;;;6.38;3.70;;;;;;;19.30;60.91;102063.78;10578469;28;20077;-79
2022/08/09 20:33:32;;;;;;;7.00;3.80;;;;;;;19.30;61.72;102070.19;10569247;28;20043;-80
2022/08/09 20:38:37;;;;;;;12.27;4.22;;;;;;;19.28;61.43;102069.66;10573231;28;20078;-80
2022/08/09 20:43:39;;;;;;;7.22;4.00;;;;;;;19.31;61.09;102069.06;10570472;28;20036;-79
2022/08/09 20:48:42;;;;;;;8.07;3.92;;;;;;;19.33;61.52;102077.91;10589800;28;20047;-90
2022/08/09 20:53:44;;;;;;;6.65;3.95;;;;;;;19.31;61.95;102076.56;10570711;28;20559;-82
2022/08/09 20:58:46;;;;;;;9.00;3.85;;;;;;;19.35;61.80;102074.81;10576948;28;20043;-82
2022/08/09 21:03:48;;;;;;;9.77;4.28;;;;;;;19.30;62.02;102078.53;10593108;28;20036;-82
2022/08/09 21:08:51;;;;;;;9.65;3.70;;;;;;;19.26;62.22;102072.75;10564623;28;20509;-82
2022/08/09 21:13:53;;;;;;;9.50;4.43;;;;;;;19.24;62.36;102075.00;10587304;28;20422;-82
2022/08/09 21:18:57;;;;;;;6.55;4.40;;;;;;;19.29;62.89;102082.44;10588049;28;20043;-88
2022/08/09 21:24:00;;;;;;;7.47;4.25;;;;;;;19.27;62.74;102087.50;10578058;28;20383;-94
2022/08/09 21:29:03;;;;;;;7.70;4.35;;;;;;;19.15;62.45;102081.56;10546271;28;20043;-94
2022/08/09 21:34:06;;;;;;;7.20;3.97;;;;;;;18.97;63.39;102086.03;10539894;28;20441;-83
2022/08/09 21:39:08;;;;;;;9.60;4.00;;;;;;;18.92;63.29;102083.34;10574794;28;20039;-84
2022/08/09 21:44:10;;;;;;;7.65;3.95;;;;;;;18.88;63.46;102080.31;10579919;28;20039;-85
2022/08/09 21:49:12;;;;;;;12.32;4.50;;;;;;;18.76;64.64;102084.72;10604824;28;20040;-79
2022/08/09 21:54:18;;;;;;;6.25;3.65;;;;;;;18.77;64.53;102084.41;10568589;28;20032;-81
2022/08/09 21:59:20;;;;;;;12.10;4.65;;;;;;;18.80;64.48;102086.59;10543346;28;20040;-81
2022/08/09 22:04:22;;;;;;;10.25;3.95;;;;;;;18.83;64.82;102083.19;10524309;28;20044;-80
2022/08/09 22:09:25;;;;;;;9.07;4.47;;;;;;;18.78;65.02;102074.94;10594934;28;20055;-80
2022/08/09 22:14:27;;;;;;;15.45;4.75;;;;;;;18.72;65.71;102080.84;10598601;28;20048;-80
2022/08/09 22:19:30;;;;;;;9.23;4.53;;;;;;;18.73;65.39;102080.56;10590951;28;20055;-80
2022/08/09 22:24:32;;;;;;;9.32;4.60;;;;;;;18.81;65.18;102077.09;10606574;28;20035;-81
2022/08/09 22:29:34;;;;;;;9.35;4.40;;;;;;;18.88;65.52;102071.97;10610929;28;20051;-79
2022/08/09 22:34:36;;;;;;;8.38;3.97;;;;;;;18.90;65.25;102080.84;10595472;28;20043;-79
2022/08/09 22:39:38;;;;;;;13.13;4.10;;;;;;;18.78;65.01;102080.50;10580355;28;20044;-81
2022/08/09 22:44:41;;;;;;;7.32;4.13;;;;;;;18.72;65.67;102069.72;10587388;28;20039;-82
2022/08/09 22:49:43;;;;;;;7.05;4.05;;;;;;;18.69;65.79;102076.72;10569100;28;20040;-81
2022/08/09 22:54:46;;;;;;;12.27;4.20;;;;;;;18.70;65.66;102066.44;10593815;28;20066;-81
2022/08/09 22:59:48;;;;;;;10.55;4.50;;;;;;;18.71;66.14;102080.03;10592132;28;20036;-80
2022/08/09 23:04:51;;;;;;;11.65;4.15;;;;;;;18.68;65.91;102080.63;10613439;28;20056;-82
2022/08/09 23:09:53;;;;;;;7.15;4.25;;;;;;;18.72;66.26;102084.47;10550735;28;20036;-81
2022/08/09 23:14:56;;;;;;;8.10;4.00;;;;;;;18.68;66.18;102069.50;10605174;28;20051;-83
2022/08/09 23:19:58;;;;;;;10.45;4.32;;;;;;;18.62;66.50;102079.03;10566465;28;20036;-81
2022/08/09 23:25:00;;;;;;;10.60;4.18;;;;;;;18.56;66.54;102085.78;10599996;28;20054;-82